NJK weather

El Centro NAF Airport (Vraciu Field)
El Centro, California, United States

Public forecast

Using degrees Fahrenheit for public forecast. Weather courtesy of forecast.io.

METAR (pilot weather report)

Retrieved 2019/08/22 15:56 UTC (45 minutes ago):

KNJK 221556Z 11005KT 10SM CLR 32/24 A2969 RMK AO2 SLP068 T03220239

TAF (pilot weather forecast)

Forecast is more than 12 hours old.

Retrieved 2016/08/04 23:15 UTC (3 years ago):

TAF KNJK 032300Z 0323/0423 VRB06KT 9999 FEW080 FEW280 TEMPO 0323/0405 14010KT FM040600 VRB06KT FEW280 QNH2968INS AUTOMATED SENSOR METWATCH 0406 TIL 0413 TX41/0323Z TN28/0412Z FS30081